ADDS METAR Data INFO
IDs: Format: Raw Decoded Include TAF

Data at: 1926 UTC 23 Apr 2018

K20U 231915Z AUTO 02018G25KT 10SM OVC070 09/M01 A3026 RMK AO2
K20U 231855Z AUTO 01019KT 10SM OVC070 09/M02 A3027 RMK AO2
K20U 231835Z AUTO 02018G24KT 10SM OVC070 10/M01 A3027 RMK AO2
K20U 231815Z AUTO 01016G27KT 10SM OVC070 10/M01 A3027 RMK AO2
K20U 231755Z AUTO 02017G27KT 10SM OVC070 10/M01 A3027 RMK AO2
K20U 231735Z AUTO 02022KT 10SM FEW049 FEW055 OVC070 09/M02 A3028 RMK AO2
K20U 231715Z AUTO 01019G24KT 10SM SCT049 BKN055 09/M02 A3028 RMK AO2
K20U 231655Z AUTO 03014G22KT 10SM BKN050 BKN060 BKN070 09/M01 A3028 RMK AO2
K20U 231635Z AUTO 02018KT 10SM FEW070 FEW085 09/M01 A3028 RMK AO2
K20U 231615Z AUTO 04018KT 10SM SCT070 BKN080 09/M01 A3027 RMK AO2
K20U 231555Z AUTO 03017KT 10SM SCT070 BKN080 08/M02 A3026 RMK AO2
K20U 231515Z AUTO 04017KT 10SM FEW100 07/M02 A3025 RMK AO2
K20U 231455Z AUTO 04015KT 10SM FEW090 BKN110 07/M03 A3025 RMK AO2
K20U 231435Z AUTO 03015KT 10SM BKN100 07/M03 A3025 RMK AO2
K20U 231415Z AUTO 04013KT 10SM BKN100 07/M03 A3025 RMK AO2
K20U 231355Z AUTO 03012KT 10SM OVC100 07/M03 A3025 RMK AO2
K20U 231335Z AUTO 03011KT 10SM OVC110 06/M03 A3024 RMK AO2
K20U 231315Z AUTO 02010KT 10SM SCT085 OVC110 06/M03 A3024 RMK AO2
K20U 231255Z AUTO 01010KT 10SM SCT085 OVC100 06/M04 A3023 RMK AO2
K20U 231235Z AUTO 02009KT 10SM OVC100 05/M03 A3022 RMK AO2
K20U 231215Z AUTO 01007KT 10SM OVC100 05/M03 A3023 RMK AO2
K20U 231155Z AUTO 35003KT 10SM FEW090 OVC110 05/M03 A3023 RMK AO2
K20U 231135Z AUTO 02004KT 10SM BKN085 OVC110 05/M03 A3022 RMK AO2
K20U 231115Z AUTO 03003KT 10SM SCT080 OVC090 05/M04 A3021 RMK AO2
K20U 231055Z AUTO 03006KT 10SM SCT080 OVC090 05/M04 A3021 RMK AO2
K20U 231035Z AUTO 03007KT 10SM FEW075 BKN090 OVC110 06/M03 A3021 RMK AO2
K20U 231015Z AUTO 03009KT 10SM OVC110 06/M04 A3021 RMK AO2
K20U 230955Z AUTO 03009KT 10SM FEW085 OVC110 06/M03 A3020 RMK AO2
K20U 230935Z AUTO 02009KT 10SM -DZ BKN085 OVC110 04/M03 A3019 RMK AO2
K20U 230915Z AUTO 36008KT 10SM BKN085 OVC110 04/M02 A3020 RMK AO2
K20U 230855Z AUTO 35006KT 10SM -DZ OVC090 03/M02 A3019 RMK AO2
K20U 230835Z AUTO 35005KT 4SM HZ BKN085 OVC110 04/M03 A3019 RMK AO2
K20U 230815Z AUTO 03003KT 10SM OVC110 04/M03 A3019 RMK AO2
K20U 230755Z AUTO 00000KT 10SM OVC110 05/M04 A3017 RMK AO2
K20U 230735Z AUTO 00000KT 10SM OVC110 05/M04 A3018 RMK AO2
K20U 230715Z AUTO 00000KT 8SM OVC120 05/M04 A3017 RMK AO2
K20U 230655Z AUTO 00000KT 7SM BKN120 02/M04 A3017 RMK AO2
K20U 230635Z AUTO 36005KT 10SM CLR 04/M05 A3016 RMK AO2
K20U 230615Z AUTO 00000KT 10SM CLR 03/M04 A3016 RMK AO2
K20U 230555Z AUTO 00000KT 10SM CLR 04/M05 A3016 RMK AO2
K20U 230535Z AUTO 00000KT 10SM CLR 03/M04 A3016 RMK AO2
K20U 230515Z AUTO 00000KT 10SM CLR 05/M04 A3016 RMK AO2
K20U 230455Z AUTO 00000KT 10SM CLR 03/M03 A3015 RMK AO2
K20U 230435Z AUTO 00000KT 10SM CLR 04/M03 A3015 RMK AO2
K20U 230415Z AUTO 00000KT 10SM CLR 05/M03 A3015 RMK AO2
K20U 230355Z AUTO 00000KT 10SM CLR 04/M04 A3016 RMK AO2
K20U 230335Z AUTO 34004KT 10SM CLR 05/M04 A3016 RMK AO2
K20U 230315Z AUTO 01008KT 10SM CLR 07/M04 A3015 RMK AO2
K20U 230255Z AUTO 35007KT 10SM CLR 08/M04 A3015 RMK AO2
K20U 230235Z AUTO 31004KT 10SM CLR 10/M05 A3014 RMK AO2
K20U 230215Z AUTO 00000KT 10SM CLR 12/M05 A3013 RMK AO2
K20U 230155Z AUTO 35003KT 10SM CLR 13/M06 A3013 RMK AO2
K20U 230135Z AUTO 35005KT 10SM CLR 14/M06 A3013 RMK AO2
K20U 230115Z AUTO 35004KT 10SM CLR 15/M06 A3012 RMK AO2
K20U 230055Z AUTO 35005KT 10SM CLR 17/M07 A3012 RMK AO2
K20U 230035Z AUTO VRB03KT 10SM CLR 17/M07 A3012 RMK AO2
K20U 230015Z AUTO VRB04KT 10SM CLR 17/M08 A3012 RMK AO2
K20U 222355Z AUTO 34006KT 10SM CLR 18/M08 A3012 RMK AO2
K20U 222335Z AUTO VRB03KT 10SM -DZ CLR 18/M08 A3012 RMK AO2
K20U 222315Z AUTO 00000G10KT 10SM CLR 18/M09 A3012 RMK AO2
K20U 222255Z AUTO 28007KT 10SM CLR 18/M09 A3012 RMK AO2
K20U 222235Z AUTO 00000KT 10SM -DZ CLR 17/M09 A3012 RMK AO2
K20U 222215Z AUTO 33004G17KT 10SM CLR 18/M09 A3013 RMK AO2
K20U 222155Z AUTO VRB05G12KT 10SM CLR 18/M09 A3013 RMK AO2
K20U 222115Z AUTO 26007KT 240V300 10SM -DZ SCT110 17/M08 A3013 RMK AO2
K20U 222055Z AUTO 29005G11KT 10SM SCT100 SCT120 17/M08 A3014 RMK AO2
K20U 222035Z AUTO VRB05KT 10SM BKN100 BKN120 17/M08 A3014 RMK AO2
K20U 221955Z AUTO VRB04KT 10SM OVC110 16/M09 A3015 RMK AO2
K20U 221915Z AUTO 21003KT 10SM FEW120 16/M10 A3016 RMK AO2
K20U 221835Z AUTO 24005KT 10SM BKN100 15/M08 A3017 RMK AO2
K20U 221815Z AUTO VRB05G11KT 10SM BKN110 15/M06 A3017 RMK AO2
K20U 221755Z AUTO 33007KT 10SM SCT110 15/M07 A3017 RMK AO2
K20U 221735Z AUTO 32008KT 10SM FEW110 15/M07 A3018 RMK AO2
K20U 221715Z AUTO VRB04KT 10SM SCT110 14/M06 A3018 RMK AO2
K20U 221655Z AUTO 27007KT 10SM FEW120 14/M06 A3018 RMK AO2
K20U 221635Z AUTO 00000KT 10SM SCT120 13/M06 A3018 RMK AO2
K20U 221615Z AUTO VRB04KT 10SM CLR 13/M05 A3018 RMK AO2
K20U 221555Z AUTO 29007KT 10SM FEW120 13/M05 A3018 RMK AO2
K20U 221535Z AUTO 31005KT 10SM SCT120 11/M05 A3018 RMK AO2
K20U 221515Z AUTO 32005KT 10SM SCT120 11/M05 A3018 RMK AO2
K20U 221455Z AUTO 31008KT 10SM CLR 11/M04 A3018 RMK AO2
K20U 221435Z AUTO 32008KT 10SM CLR 10/M04 A3018 RMK AO2
K20U 221415Z AUTO 30007KT 10SM CLR 10/M03 A3018 RMK AO2
K20U 221355Z AUTO 29004KT 10SM CLR 07/01 A3018 RMK AO2
K20U 221335Z AUTO 27003KT 10SM CLR 03/00 A3017 RMK AO2
K20U 221315Z AUTO 00000KT 10SM CLR 02/00 A3018 RMK AO2
K20U 221255Z AUTO 00000KT 10SM CLR 02/00 A3017 RMK AO2
K20U 221235Z AUTO 00000KT 10SM CLR M00/M01 A3017 RMK AO2
K20U 221215Z AUTO 00000KT 10SM CLR M00/M01 A3017 RMK AO2
K20U 221155Z AUTO 25004KT 10SM CLR M01/M01 A3017 RMK AO2
K20U 221135Z AUTO 21004KT 10SM CLR M02/M02 A3016 RMK AO2
K20U 221115Z AUTO 24003KT 10SM CLR M00/M00 A3015 RMK AO2
K20U 221055Z AUTO 00000KT 10SM CLR M01/M01 A3014 RMK AO2
K20U 221035Z AUTO 19003KT 10SM CLR M01/M01 A3014 RMK AO2
K20U 221015Z AUTO 00000KT 10SM CLR M00/M00 A3013 RMK AO2
K20U 220955Z AUTO 00000KT 10SM CLR 01/01 A3013 RMK AO2
K20U 220935Z AUTO 00000KT 10SM FEW055 01/01 A3013 RMK AO2
K20U 220915Z AUTO 00000KT 10SM CLR 01/01 A3013 RMK AO2
K20U 220855Z AUTO 23004KT 10SM FEW050 02/02 A3012 RMK AO2
K20U 220835Z AUTO 18005KT 10SM FEW050 FEW060 03/03 A3012 RMK AO2
K20U 220815Z AUTO 19007KT 10SM FEW050 FEW060 04/03 A3012 RMK AO2
K20U 220755Z AUTO 18005KT 10SM SCT055 04/03 A3012 RMK AO2
K20U 220735Z AUTO 19004KT 10SM FEW048 SCT055 04/03 A3011 RMK AO2